Time;durP1;ratioP1;P1;durP2;ratioP2;P2;SDS_P1;SDS_P2;PMS_P1;PMS_P2;Temp;Humidity;BMP_temperature;BMP_pressure;BME280_temperature;BME280_humidity;BME280_pressure;Samples;Min_cycle;Max_cycle;Signal;HPM_P1;HPM_P2
2023/10/09 00:02:15;;;;;;;;;;;;;;;27.62;42.78;95030.31;5008221;28;7014;-62
2023/10/09 00:05:11;;;;;;;;;;;;;;;27.64;43.00;95027.78;5028736;28;7694;-65
2023/10/09 00:07:47;;;;;;;;;;;;;;;27.62;42.70;95026.81;5030956;28;8741;-65
2023/10/09 00:10:17;;;;;;;;;;;;;;;27.63;42.74;95025.53;5034862;28;8420;-65
2023/10/09 00:12:43;;;;;;;;;;;;;;;27.62;43.21;95027.53;5038181;28;7986;-65
2023/10/09 00:15:35;;;;;;;;;;;;;;;27.62;43.05;95024.78;5013625;28;7018;-65
2023/10/09 00:18:12;;;;;;;;;;;;;;;27.62;43.03;95030.31;5013614;28;9043;-65
2023/10/09 00:20:53;;;;;;;;;;;;;;;27.57;43.06;95027.56;5033892;28;7393;-65
2023/10/09 00:23:25;;;;;;;;;;;;;;;27.59;43.64;95028.56;5001628;28;8982;-65
2023/10/09 00:29:06;;;;;;;;;;;;;;;27.61;43.19;95019.75;4976924;28;7411;-65
2023/10/09 00:31:54;;;;;;;;;;;;;;;27.59;43.30;95023.03;4972066;28;7012;-65
2023/10/09 00:34:26;;;;;;;;;;;;;;;27.58;43.88;95010.47;5003449;28;7220;-65
2023/10/09 00:37:26;;;;;;;;;;;;;;;27.59;43.38;95016.75;4986498;28;9038;-65
2023/10/09 00:40:12;;;;;;;;;;;;;;;27.58;42.81;95012.47;4964971;28;7188;-65
2023/10/09 00:42:39;;;;;;;;;;;;;;;27.57;43.46;95016.53;4981629;28;8191;-65
2023/10/09 00:45:07;;;;;;;;;;;;;;;27.57;43.38;95022.03;4948811;28;7204;-65
2023/10/09 00:47:57;;;;;;;;;;;;;;;27.56;43.32;95018.53;4953374;28;7222;-65
2023/10/09 00:50:36;;;;;;;;;;;;;;;27.57;43.47;95020.03;4974709;28;8682;-65
2023/10/09 00:53:18;;;;;;;;;;;;;;;27.56;43.05;95018.53;4958104;28;7009;-65
2023/10/09 00:56:05;;;;;;;;;;;;;;;27.55;43.09;95022.56;4974669;28;7283;-65
2023/10/09 00:58:35;;;;;;;;;;;;;;;27.54;43.32;95015.53;4954504;28;8479;-65
2023/10/09 01:01:04;;;;;;;;;;;;;;;27.52;43.35;95006.22;4994940;28;7280;-64
2023/10/09 01:03:33;;;;;;;;;;;;;;;27.55;43.17;95010.75;5018161;28;7123;-65
2023/10/09 01:11:48;;;;;;;;;;;;;;;27.52;43.41;95004.22;4997052;28;7056;-65
2023/10/09 01:16:47;;;;;;;;;;;;;;;27.52;43.49;94997.94;5042606;28;7156;-61
2023/10/09 01:19:30;;;;;;;;;;;;;;;27.51;42.79;95001.97;5038273;28;8433;-61
2023/10/09 01:22:04;;;;;;;;;;;;;;;27.49;43.57;94998.97;5076645;28;7161;-61
2023/10/09 01:24:55;;;;;;;;;;;;;;;27.50;43.38;94998.47;5057467;28;7244;-61
2023/10/09 01:27:24;;;;;;;;;;;;;;;27.50;43.02;94998.47;5070129;28;7070;-61
2023/10/09 01:29:52;;;;;;;;;;;;;;;27.50;43.01;95003.97;5078193;28;7229;-61
2023/10/09 01:32:50;;;;;;;;;;;;;;;27.51;43.27;95004.75;5054873;28;7242;-61
2023/10/09 01:35:22;;;;;;;;;;;;;;;27.50;43.06;95006.75;5022557;28;7523;-61
2023/10/09 01:37:57;;;;;;;;;;;;;;;27.49;43.11;94996.94;5023682;28;9099;-61
2023/10/09 01:40:37;;;;;;;;;;;;;;;27.47;43.34;94996.69;5022971;28;9100;-61
2023/10/09 01:43:32;;;;;;;;;;;;;;;27.49;42.90;94996.94;5032753;28;7782;-61
2023/10/09 01:46:05;;;;;;;;;;;;;;;27.48;43.02;94986.41;5005812;28;7216;-61
2023/10/09 01:48:33;;;;;;;;;;;;;;;27.45;43.31;94984.66;5016261;28;7165;-61
2023/10/09 01:51:34;;;;;;;;;;;;;;;27.47;43.08;94993.94;5008224;28;7246;-61
2023/10/09 01:54:33;;;;;;;;;;;;;;;27.46;43.30;94986.16;4964725;28;7149;-61
2023/10/09 01:57:22;;;;;;;;;;;;;;;27.45;42.83;94996.47;4967447;28;7209;-60
2023/10/09 01:59:49;;;;;;;;;;;;;;;27.45;43.33;94995.69;4963706;28;7071;-61
2023/10/09 02:02:34;;;;;;;;;;;;;;;27.45;43.20;94985.41;4946483;28;7248;-61
2023/10/09 02:05:09;;;;;;;;;;;;;;;27.45;42.83;94990.19;4973585;28;9422;-61
2023/10/09 02:07:58;;;;;;;;;;;;;;;27.45;43.30;94996.47;4973386;28;7262;-61
2023/10/09 02:13:10;;;;;;;;;;;;;;;27.43;43.33;94989.94;5013313;28;7489;-61
2023/10/09 02:18:58;;;;;;;;;;;;;;;27.41;43.37;94981.41;5003296;28;6979;-61
2023/10/09 02:21:14;;;;;;;;;;;;;;;27.43;43.52;94989.94;5002237;28;7182;-60
2023/10/09 02:23:57;;;;;;;;;;;;;;;27.40;43.07;94986.22;5025533;28;7197;-65
2023/10/09 02:26:32;;;;;;;;;;;;;;;27.40;43.19;94985.44;5009123;28;7237;-65
2023/10/09 02:28:58;;;;;;;;;;;;;;;27.40;42.79;94986.22;5028316;28;7195;-65
2023/10/09 02:31:40;;;;;;;;;;;;;;;27.41;43.49;94989.69;5061403;28;7816;-65
2023/10/09 02:34:15;;;;;;;;;;;;;;;27.38;43.19;94976.91;5079844;28;9075;-65
2023/10/09 02:37:05;;;;;;;;;;;;;;;27.39;43.34;94975.66;5072956;28;8793;-65
2023/10/09 02:39:43;;;;;;;;;;;;;;;27.39;43.04;94975.66;5043634;28;7226;-65
2023/10/09 02:42:23;;;;;;;;;;;;;;;27.39;43.27;94979.16;5048475;28;7204;-65
2023/10/09 02:44:55;;;;;;;;;;;;;;;27.39;43.23;94976.41;5078868;28;8848;-65
2023/10/09 02:47:39;;;;;;;;;;;;;;;27.39;43.21;94975.66;5053056;28;9203;-65
2023/10/09 02:50:38;;;;;;;;;;;;;;;27.37;43.36;94973.41;5047770;28;8835;-65
2023/10/09 02:53:29;;;;;;;;;;;;;;;27.36;43.10;94968.38;5049490;28;9169;-65
2023/10/09 02:56:13;;;;;;;;;;;;;;;27.37;43.10;94962.34;5053833;28;7004;-65
2023/10/09 02:58:52;;;;;;;;;;;;;;;27.37;43.13;94967.13;5053043;28;7195;-65
2023/10/09 03:01:21;;;;;;;;;;;;;;;27.36;43.10;94971.88;5087061;28;9114;-64
2023/10/09 03:03:51;;;;;;;;;;;;;;;27.36;43.21;94966.34;5059195;28;7348;-65
2023/10/09 03:06:28;;;;;;;;;;;;;;;27.35;43.08;94969.59;5076487;28;7959;-65
2023/10/09 03:08:57;;;;;;;;;;;;;;;27.36;43.18;94971.16;5052893;28;9763;-65
2023/10/09 03:12:00;;;;;;;;;;;;;;;27.35;43.29;94973.16;5054225;28;8832;-65
2023/10/09 03:14:47;;;;;;;;;;;;;;;27.36;43.22;94971.16;5053681;28;9304;-65
2023/10/09 03:17:24;;;;;;;;;;;;;;;27.33;43.39;94970.13;5036183;28;10042;-65
2023/10/09 03:20:06;;;;;;;;;;;;;;;27.34;43.09;94962.59;5050395;28;9107;-65
2023/10/09 03:22:35;;;;;;;;;;;;;;;27.35;43.27;94966.84;5081397;28;7485;-65
2023/10/09 03:25:02;;;;;;;;;;;;;;;27.31;43.37;94960.84;5057005;28;9222;-65
2023/10/09 03:27:47;;;;;;;;;;;;;;;27.34;43.29;94973.66;5046047;28;7282;-65
2023/10/09 03:30:23;;;;;;;;;;;;;;;27.34;43.53;94973.66;5058083;28;7282;-65
2023/10/09 03:32:57;;;;;;;;;;;;;;;27.35;43.02;94975.13;5069580;28;7365;-65
2023/10/09 03:35:34;;;;;;;;;;;;;;;27.33;43.20;94975.66;5036147;28;7214;-54
2023/10/09 03:38:16;;;;;;;;;;;;;;;27.31;43.46;94966.38;5078441;28;7268;-54
2023/10/09 03:40:53;;;;;;;;;;;;;;;27.31;43.16;94969.13;5042218;28;6973;-55
2023/10/09 03:43:42;;;;;;;;;;;;;;;27.28;43.35;94962.59;5060282;28;9108;-54
2023/10/09 03:46:21;;;;;;;;;;;;;;;27.28;43.61;94968.13;5054530;28;6988;-55
2023/10/09 03:48:57;;;;;;;;;;;;;;;27.31;43.45;94969.88;5068920;28;9255;-53
2023/10/09 03:52:09;;;;;;;;;;;;;;;27.30;43.26;94979.41;5052038;28;7319;-54
2023/10/09 03:54:46;;;;;;;;;;;;;;;27.29;43.15;94969.66;5007919;28;7893;-55
2023/10/09 03:57:24;;;;;;;;;;;;;;;27.29;43.34;94969.66;5007809;28;7000;-55
2023/10/09 03:59:51;;;;;;;;;;;;;;;27.27;43.58;94972.16;4997430;28;6917;-55
2023/10/09 04:02:18;;;;;;;;;;;;;;;27.28;42.81;94972.91;5014959;28;9052;-54
2023/10/09 04:04:47;;;;;;;;;;;;;;;27.26;43.19;94967.13;5009206;28;8789;-54
2023/10/09 04:07:23;;;;;;;;;;;;;;;27.27;43.18;94974.94;4992427;28;7246;-55
2023/10/09 04:10:01;;;;;;;;;;;;;;;27.27;43.09;94963.88;5002259;28;7267;-55
2023/10/09 04:12:39;;;;;;;;;;;;;;;27.27;42.84;94960.34;4985425;28;9074;-54
2023/10/09 04:15:14;;;;;;;;;;;;;;;27.26;43.20;94962.38;4991789;28;7051;-55
2023/10/09 04:18:09;;;;;;;;;;;;;;;27.27;43.40;94958.34;5011306;28;7228;-55
2023/10/09 04:21:13;;;;;;;;;;;;;;;27.25;43.26;94957.34;5004777;28;7013;-54
2023/10/09 04:23:49;;;;;;;;;;;;;;;27.26;43.04;94956.09;5008971;28;7426;-53
2023/10/09 04:26:15;;;;;;;;;;;;;;;27.27;43.47;94960.34;4998184;28;6991;-53
2023/10/09 04:28:52;;;;;;;;;;;;;;;27.22;43.15;94967.41;5011099;28;8839;-55
2023/10/09 04:31:22;;;;;;;;;;;;;;;27.24;43.44;94955.84;5014009;28;7414;-55
2023/10/09 04:34:21;;;;;;;;;;;;;;;27.23;43.13;94963.38;5062797;28;8792;-54
2023/10/09 04:36:56;;;;;;;;;;;;;;;27.23;43.15;94951.59;5085745;28;7059;-55
2023/10/09 04:45:18;;;;;;;;;;;;;;;27.22;43.01;94952.84;5066341;28;7395;-62
2023/10/09 04:47:36;;;;;;;;;;;;;;;27.21;43.46;94965.88;5057606;28;7112;-61
2023/10/09 04:55:17;;;;;;;;;;;;;;;27.21;43.17;94960.38;5066185;28;7263;-61
2023/10/09 04:58:00;;;;;;;;;;;;;;;27.20;43.38;94967.16;5075142;28;8847;-61
2023/10/09 05:02:59;;;;;;;;;;;;;;;27.19;42.90;94962.88;5065494;28;7716;-61
2023/10/09 05:16:26;;;;;;;;;;;;;;;27.17;43.18;94959.88;5064848;28;7213;-61
2023/10/09 05:18:57;;;;;;;;;;;;;;;27.18;42.84;94964.16;5063542;28;9355;-61
2023/10/09 05:24:42;;;;;;;;;;;;;;;27.17;43.18;94970.94;5069009;28;7305;-61
2023/10/09 05:27:50;;;;;;;;;;;;;;;27.17;43.26;94976.44;5001111;28;7248;-60
2023/10/09 05:30:24;;;;;;;;;;;;;;;27.16;43.49;94974.22;4935857;29;7241;-61
2023/10/09 05:33:27;;;;;;;;;;;;;;;27.16;43.41;94969.44;4935990;29;7278;-61
2023/10/09 05:36:14;;;;;;;;;;;;;;;27.16;43.08;94974.22;4935640;29;6970;-61
2023/10/09 05:41:59;;;;;;;;;;;;;;;27.14;43.52;94982.25;4935746;29;8225;-60
2023/10/09 05:47:43;;;;;;;;;;;;;;;27.14;43.02;94985.78;4929114;29;7334;-61
2023/10/09 06:05:40;;;;;;;;;;;;;;;27.10;43.06;94988.00;4954283;28;7447;-62
2023/10/09 06:08:04;;;;;;;;;;;;;;;27.11;43.39;94989.53;4988538;28;7308;-62
2023/10/09 06:10:41;;;;;;;;;;;;;;;27.10;43.42;94999.06;4999048;28;7029;-63
2023/10/09 06:13:47;;;;;;;;;;;;;;;27.11;43.23;94997.06;4993664;28;8376;-62
2023/10/09 06:16:41;;;;;;;;;;;;;;;27.11;43.55;95000.56;4993470;28;7117;-62
2023/10/09 06:19:12;;;;;;;;;;;;;;;27.11;43.33;95000.56;4985066;28;7373;-63
2023/10/09 06:24:22;;;;;;;;;;;;;;;27.10;43.31;94998.34;4993549;28;9380;-62
2023/10/09 06:38:33;;;;;;;;;;;;;;;27.09;43.46;94997.56;4953909;28;7332;-63
2023/10/09 06:41:45;;;;;;;;;;;;;;;27.08;43.35;95001.56;4968514;28;7165;-62
2023/10/09 06:44:52;;;;;;;;;;;;;;;27.09;43.43;94999.56;4937578;28;7302;-62
2023/10/09 06:47:17;;;;;;;;;;;;;;;27.11;43.03;94999.81;4953900;28;7019;-63
2023/10/09 06:55:51;;;;;;;;;;;;;;;27.09;43.20;95002.34;4898399;29;9271;-62
2023/10/09 06:58:27;;;;;;;;;;;;;;;27.06;43.18;95001.34;4888983;29;9036;-62
2023/10/09 07:04:26;;;;;;;;;;;;;;;27.08;43.24;95012.63;4896859;29;7512;-63
2023/10/09 07:07:52;;;;;;;;;;;;;;;27.09;43.36;95014.13;4896052;29;7072;-63
2023/10/09 07:10:29;;;;;;;;;;;;;;;27.09;43.48;95019.66;4858954;29;7242;-63
2023/10/09 07:13:24;;;;;;;;;;;;;;;27.10;43.21;95010.09;4881248;29;7293;-61
2023/10/09 07:22:15;;;;;;;;;;;;;;;27.10;43.35;95021.16;4839537;29;8048;-62
2023/10/09 07:25:27;;;;;;;;;;;;;;;27.09;43.51;95024.44;4830617;29;7181;-61
2023/10/09 07:27:55;;;;;;;;;;;;;;;27.10;43.28;95023.19;4798494;29;7780;-62
2023/10/09 07:33:33;;;;;;;;;;;;;;;27.11;43.25;95022.66;4855958;29;7474;-61
2023/10/09 07:36:07;;;;;;;;;;;;;;;27.11;43.70;95021.91;4858503;29;9057;-61
2023/10/09 07:38:55;;;;;;;;;;;;;;;27.12;43.33;95024.16;4842402;29;7316;-61
2023/10/09 07:43:50;;;;;;;;;;;;;;;27.11;43.23;95030.19;4888579;29;9358;-62
2023/10/09 07:46:51;;;;;;;;;;;;;;;27.12;43.60;95032.44;4922869;29;7304;-62
2023/10/09 07:49:25;;;;;;;;;;;;;;;27.13;43.69;95038.72;4909743;29;7125;-62
2023/10/09 07:52:02;;;;;;;;;;;;;;;27.14;43.24;95035.47;4922142;29;8713;-61
2023/10/09 07:55:02;;;;;;;;;;;;;;;27.15;43.02;95030.69;4924441;29;9095;-61
2023/10/09 07:57:38;;;;;;;;;;;;;;;27.15;43.17;95031.44;4937216;29;7256;-61
2023/10/09 08:03:02;;;;;;;;;;;;;;;27.14;42.70;95027.19;4967684;28;9097;-61
2023/10/09 08:05:48;;;;;;;;;;;;;;;27.15;43.39;95031.44;5060578;28;7411;-61
2023/10/09 08:13:57;;;;;;;;;;;;;;;27.14;43.19;95031.97;5066127;28;7305;-62
2023/10/09 08:16:36;;;;;;;;;;;;;;;27.16;43.57;95034.97;5068978;28;9425;-61
2023/10/09 08:19:32;;;;;;;;;;;;;;;27.15;43.41;95038.97;5070295;28;7001;-61
2023/10/09 08:25:26;;;;;;;;;;;;;;;27.17;43.22;95042.72;5060264;28;7352;-61
2023/10/09 08:31:34;;;;;;;;;;;;;;;27.15;43.36;95045.25;5057931;28;8739;-61
2023/10/09 08:34:09;;;;;;;;;;;;;;;27.16;43.04;95052.28;5046074;28;9511;-61
2023/10/09 08:36:39;;;;;;;;;;;;;;;27.16;43.23;95055.06;5062574;28;7207;-61
2023/10/09 08:39:23;;;;;;;;;;;;;;;27.14;43.37;95056.81;5056106;28;8016;-61
2023/10/09 08:41:51;;;;;;;;;;;;;;;27.18;43.36;95069.09;5042323;28;6970;-61
2023/10/09 08:44:24;;;;;;;;;;;;;;;27.17;43.16;95070.34;5053983;28;9055;-61
2023/10/09 08:47:27;;;;;;;;;;;;;;;27.19;43.10;95072.59;5086865;28;7323;-61
2023/10/09 08:49:56;;;;;;;;;;;;;;;27.15;43.29;95067.34;5022481;28;9159;-61
2023/10/09 08:52:24;;;;;;;;;;;;;;;27.19;43.09;95072.59;5034055;28;7293;-61
2023/10/09 08:54:51;;;;;;;;;;;;;;;27.18;43.10;95074.63;5015243;28;7256;-61
2023/10/09 08:57:18;;;;;;;;;;;;;;;27.19;43.10;95076.13;5011537;28;8467;-61
2023/10/09 08:59:44;;;;;;;;;;;;;;;27.17;43.06;95070.34;5016196;28;7627;-61
2023/10/09 09:02:15;;;;;;;;;;;;;;;27.16;43.21;95076.38;5013282;28;7491;-61
2023/10/09 09:04:41;;;;;;;;;;;;;;;27.18;43.27;95079.38;5037959;28;8751;-61
2023/10/09 09:07:31;;;;;;;;;;;;;;;27.19;43.37;95081.63;5016943;28;9144;-61
2023/10/09 09:10:03;;;;;;;;;;;;;;;27.19;43.13;95083.63;5038512;28;9089;-61
2023/10/09 09:12:37;;;;;;;;;;;;;;;27.18;43.81;95082.91;5017049;28;7418;-61
2023/10/09 09:15:18;;;;;;;;;;;;;;;27.12;43.40;95079.38;5007028;28;9107;-61
2023/10/09 09:17:51;;;;;;;;;;;;;;;27.17;43.19;95084.16;5026099;28;7333;-61
2023/10/09 09:20:47;;;;;;;;;;;;;;;27.17;43.30;95083.41;5019050;28;9050;-61
2023/10/09 09:23:23;;;;;;;;;;;;;;;27.16;43.35;95090.94;5021423;28;7239;-61
2023/10/09 09:26:08;;;;;;;;;;;;;;;27.16;43.38;95079.91;5036551;28;7480;-61
2023/10/09 09:28:54;;;;;;;;;;;;;;;27.15;43.51;95074.88;5060015;28;7015;-61
2023/10/09 09:31:22;;;;;;;;;;;;;;;27.14;43.36;95071.38;5066435;28;9042;-61
2023/10/09 09:33:58;;;;;;;;;;;;;;;27.17;43.38;95075.13;5053975;28;8572;-61
2023/10/09 09:36:29;;;;;;;;;;;;;;;27.18;42.66;95071.88;5082545;28;7097;-61
2023/10/09 09:39:01;;;;;;;;;;;;;;;27.19;43.07;95067.84;5056519;28;6983;-61
2023/10/09 09:41:40;;;;;;;;;;;;;;;27.20;43.37;95074.13;5047289;28;7178;-61
2023/10/09 09:44:25;;;;;;;;;;;;;;;27.19;43.07;95067.84;5054792;28;7448;-61
2023/10/09 09:47:30;;;;;;;;;;;;;;;27.23;43.22;95062.78;5065734;28;7038;-60
2023/10/09 09:50:24;;;;;;;;;;;;;;;27.21;43.24;95070.84;4977872;28;7556;-61
2023/10/09 09:53:08;;;;;;;;;;;;;;;27.21;43.24;95072.88;4997049;28;7282;-61
2023/10/09 09:55:41;;;;;;;;;;;;;;;27.21;43.24;95070.84;4996919;28;7501;-61
2023/10/09 09:58:23;;;;;;;;;;;;;;;27.27;43.27;95068.09;5012303;28;7119;-61
2023/10/09 10:01:14;;;;;;;;;;;;;;;27.26;43.32;95067.31;5000284;28;9976;-61
2023/10/09 10:04:04;;;;;;;;;;;;;;;27.27;43.48;95065.31;4988921;28;7119;-61
2023/10/09 10:06:45;;;;;;;;;;;;;;;27.29;43.29;95071.09;4993438;28;7182;-61
2023/10/09 10:09:38;;;;;;;;;;;;;;;27.30;43.08;95067.03;5014455;28;7057;-61
2023/10/09 10:12:14;;;;;;;;;;;;;;;27.29;43.07;95068.31;4987989;28;8815;-61
2023/10/09 10:15:08;;;;;;;;;;;;;;;27.30;43.06;95067.81;4992575;28;8434;-61
2023/10/09 10:18:23;;;;;;;;;;;;;;;27.29;43.15;95062.78;5004723;28;7283;-61
2023/10/09 10:21:15;;;;;;;;;;;;;;;27.27;43.07;95059.78;4931551;29;8182;-61
2023/10/09 10:23:47;;;;;;;;;;;;;;;27.26;42.94;95050.75;4924532;29;7360;-61
2023/10/09 10:26:26;;;;;;;;;;;;;;;27.30;43.18;95065.03;4947637;28;9742;-61
2023/10/09 10:29:23;;;;;;;;;;;;;;;27.29;43.07;95051.75;4993171;28;7074;-61
2023/10/09 10:32:43;;;;;;;;;;;;;;;27.31;43.15;95052.00;5009171;28;7319;-61
2023/10/09 10:35:45;;;;;;;;;;;;;;;27.32;43.14;95059.75;4984624;28;6987;-61
2023/10/09 10:38:42;;;;;;;;;;;;;;;27.27;43.41;95046.75;4980673;28;7277;-61
2023/10/09 10:41:17;;;;;;;;;;;;;;;27.30;43.41;95042.19;4982261;28;7702;-61
2023/10/09 10:44:00;;;;;;;;;;;;;;;27.28;43.07;95045.47;4992067;28;7280;-56
2023/10/09 10:47:00;;;;;;;;;;;;;;;27.29;43.14;95044.22;4976495;28;7082;-57
2023/10/09 10:49:37;;;;;;;;;;;;;;;27.30;43.11;95039.44;4899902;29;9939;-56
2023/10/09 10:52:17;;;;;;;;;;;;;;;27.31;43.02;95038.94;4917162;29;7086;-57
2023/10/09 10:54:45;;;;;;;;;;;;;;;27.31;42.69;95033.41;4903846;29;7292;-56
2023/10/09 10:57:28;;;;;;;;;;;;;;;27.33;43.29;95036.41;4953122;28;8793;-57
2023/10/09 11:00:06;;;;;;;;;;;;;;;27.32;43.14;95032.13;4977883;28;7012;-56
2023/10/09 11:02:43;;;;;;;;;;;;;;;27.32;43.37;95015.56;4992794;28;6925;-57
2023/10/09 11:05:23;;;;;;;;;;;;;;;27.33;43.08;95025.38;4962585;28;7219;-56
2023/10/09 11:07:57;;;;;;;;;;;;;;;27.32;42.96;95010.03;4977487;28;9050;-56
2023/10/09 11:10:31;;;;;;;;;;;;;;;27.32;43.18;95010.03;4987562;28;7258;-56
2023/10/09 11:15:44;;;;;;;;;;;;;;;27.37;43.41;95012.06;4972525;28;9239;-56
2023/10/09 11:18:24;;;;;;;;;;;;;;;27.38;43.11;95013.56;4974089;28;7268;-56
2023/10/09 11:26:26;;;;;;;;;;;;;;;27.38;43.10;95010.78;5020003;28;8844;-56
2023/10/09 11:32:18;;;;;;;;;;;;;;;27.40;43.10;95007.53;5000449;28;8790;-56
2023/10/09 11:35:34;;;;;;;;;;;;;;;27.40;43.03;94991.72;5000233;28;7145;-57
2023/10/09 11:38:20;;;;;;;;;;;;;;;27.41;42.61;95000.75;4993690;28;7297;-57
2023/10/09 11:41:18;;;;;;;;;;;;;;;27.42;43.08;95003.03;4994763;28;9083;-56
2023/10/09 11:44:04;;;;;;;;;;;;;;;27.43;43.32;94995.47;4989993;28;8589;-57
2023/10/09 11:46:58;;;;;;;;;;;;;;;27.42;43.62;94991.22;4998344;28;7298;-56
2023/10/09 11:49:44;;;;;;;;;;;;;;;27.40;43.17;94988.22;4976024;28;9043;-57
2023/10/09 11:55:14;;;;;;;;;;;;;;;27.42;43.19;94986.44;5005986;28;8891;-65
2023/10/09 11:57:43;;;;;;;;;;;;;;;27.45;43.06;94974.34;4933839;29;7276;-65
2023/10/09 12:03:05;;;;;;;;;;;;;;;27.50;43.26;94976.34;4948165;28;7315;-65
2023/10/09 12:05:33;;;;;;;;;;;;;;;27.50;43.29;94979.13;4929053;28;8300;-65
2023/10/09 12:08:16;;;;;;;;;;;;;;;27.54;42.63;94974.06;4927088;28;7810;-65
2023/10/09 12:10:54;;;;;;;;;;;;;;;27.53;42.84;94971.81;4980663;28;8422;-65
2023/10/09 12:13:25;;;;;;;;;;;;;;;27.53;42.83;94975.31;4993949;28;6971;-65
2023/10/09 12:16:07;;;;;;;;;;;;;;;27.55;43.01;94983.13;4985505;28;7576;-66
2023/10/09 12:18:36;;;;;;;;;;;;;;;27.54;42.91;94979.59;4986154;28;7369;-65
2023/10/09 12:21:17;;;;;;;;;;;;;;;27.54;43.08;94971.31;5016690;28;9949;-65
2023/10/09 12:24:18;;;;;;;;;;;;;;;27.55;42.93;94970.06;4999703;28;7099;-65
2023/10/09 12:27:00;;;;;;;;;;;;;;;27.57;43.20;94970.31;4937742;29;7598;-65
2023/10/09 12:29:34;;;;;;;;;;;;;;;27.56;42.99;94960.50;4933063;29;7013;-65
2023/10/09 12:32:03;;;;;;;;;;;;;;;27.62;42.50;94966.00;4917605;29;9235;-65
2023/10/09 12:34:30;;;;;;;;;;;;;;;27.64;43.20;94966.25;4946429;29;9579;-65
2023/10/09 12:37:01;;;;;;;;;;;;;;;27.67;42.71;94961.69;4937288;28;8838;-65
2023/10/09 12:39:58;;;;;;;;;;;;;;;27.66;42.91;94960.19;4960814;28;8807;-65
2023/10/09 12:42:42;;;;;;;;;;;;;;;27.67;42.97;94956.91;4894874;29;7324;-65
2023/10/09 12:45:18;;;;;;;;;;;;;;;27.68;43.24;94949.38;4883671;29;8747;-65
2023/10/09 12:47:44;;;;;;;;;;;;;;;27.68;43.00;94954.91;4873675;29;7078;-65
2023/10/09 12:50:13;;;;;;;;;;;;;;;27.68;42.92;94947.38;4882319;29;9271;-65
2023/10/09 12:52:40;;;;;;;;;;;;;;;27.70;42.73;94950.38;4895700;29;7890;-65
2023/10/09 12:55:09;;;;;;;;;;;;;;;27.73;42.98;94951.38;4898240;29;7273;-65
2023/10/09 12:57:38;;;;;;;;;;;;;;;27.70;43.15;94938.56;4886603;29;8827;-65
2023/10/09 13:00:11;;;;;;;;;;;;;;;27.71;42.95;94946.34;4922516;28;7224;-65
2023/10/09 13:02:51;;;;;;;;;;;;;;;27.74;43.44;94950.09;4965748;28;8250;-65
2023/10/09 13:05:34;;;;;;;;;;;;;;;27.72;42.82;94947.84;4980528;28;9134;-63
2023/10/09 13:08:21;;;;;;;;;;;;;;;27.72;42.71;94945.09;4961804;28;8222;-63
2023/10/09 13:11:16;;;;;;;;;;;;;;;27.74;43.09;94947.34;4958859;28;8435;-63
2023/10/09 13:14:16;;;;;;;;;;;;;;;27.74;42.54;94950.84;4962181;28;7050;-63
2023/10/09 13:17:10;;;;;;;;;;;;;;;27.74;42.70;94950.84;4956220;28;7584;-63
2023/10/09 13:19:37;;;;;;;;;;;;;;;27.75;43.02;94940.56;5020756;28;8970;-63
2023/10/09 13:22:13;;;;;;;;;;;;;;;27.71;42.92;94935.28;5063837;28;7252;-63
2023/10/09 13:25:03;;;;;;;;;;;;;;;27.74;42.42;94934.25;5056870;28;7171;-63
2023/10/09 13:27:34;;;;;;;;;;;;;;;27.76;42.76;94937.25;5052591;28;7022;-63
2023/10/09 13:30:50;;;;;;;;;;;;;;;27.75;42.59;94935.03;5045814;28;7211;-63
2023/10/09 13:33:43;;;;;;;;;;;;;;;27.74;43.25;94934.25;5016470;28;7520;-63
2023/10/09 13:36:27;;;;;;;;;;;;;;;27.73;42.92;94921.69;4994075;28;7189;-63
2023/10/09 13:39:23;;;;;;;;;;;;;;;27.70;43.12;94917.22;4985340;28;8852;-63
2023/10/09 13:42:12;;;;;;;;;;;;;;;27.73;42.68;94920.97;5012615;28;9541;-63
2023/10/09 13:44:49;;;;;;;;;;;;;;;27.74;42.55;94922.44;4956985;28;7329;-63
2023/10/09 13:47:31;;;;;;;;;;;;;;;27.76;42.65;94914.41;4955144;28;7911;-63
2023/10/09 13:50:32;;;;;;;;;;;;;;;27.74;42.79;94919.69;4954737;28;7368;-63
2023/10/09 13:53:01;;;;;;;;;;;;;;;27.76;43.04;94908.88;4885276;29;7232;-63
2023/10/09 13:55:31;;;;;;;;;;;;;;;27.78;43.08;94914.63;4880510;29;7424;-63
2023/10/09 13:57:58;;;;;;;;;;;;;;;27.79;42.91;94907.84;4884679;29;7629;-63
2023/10/09 14:00:42;;;;;;;;;;;;;;;27.80;42.15;94912.09;4880570;29;7082;-63
2023/10/09 14:03:27;;;;;;;;;;;;;;;27.79;42.59;94902.31;4872971;29;7268;-63
2023/10/09 14:06:12;;;;;;;;;;;;;;;27.78;43.06;94896.03;4897823;29;7107;-63
2023/10/09 14:08:44;;;;;;;;;;;;;;;27.81;43.17;94902.56;4886490;29;6973;-63
2023/10/09 14:11:24;;;;;;;;;;;;;;;27.79;43.07;94891.28;4914790;29;9236;-63
2023/10/09 14:13:53;;;;;;;;;;;;;;;27.78;43.18;94893.28;4925756;29;7066;-61
2023/10/09 14:16:32;;;;;;;;;;;;;;;27.77;42.75;94891.03;4914472;29;7002;-61
2023/10/09 14:19:00;;;;;;;;;;;;;;;27.77;43.05;94891.03;4914610;29;8065;-61
2023/10/09 14:21:32;;;;;;;;;;;;;;;27.77;42.71;94897.31;4923277;28;7258;-61
2023/10/09 14:23:59;;;;;;;;;;;;;;;27.79;42.70;94886.50;4983484;28;7348;-61
2023/10/09 14:26:27;;;;;;;;;;;;;;;27.77;42.71;94891.78;4955731;28;7079;-61
2023/10/09 14:28:58;;;;;;;;;;;;;;;27.75;43.01;94885.28;5003375;28;7314;-61
2023/10/09 14:31:38;;;;;;;;;;;;;;;27.78;42.80;94884.97;5037133;28;7048;-61
2023/10/09 14:34:18;;;;;;;;;;;;;;;27.78;42.80;94878.69;5063676;28;6985;-61
2023/10/09 14:36:44;;;;;;;;;;;;;;;27.76;43.11;94875.69;5084675;28;9130;-61
2023/10/09 14:39:26;;;;;;;;;;;;;;;27.77;42.83;94866.91;5067930;28;7233;-61
2023/10/09 14:42:11;;;;;;;;;;;;;;;27.76;43.09;94867.41;5053683;28;7114;-61
2023/10/09 14:44:46;;;;;;;;;;;;;;;27.79;42.90;94869.16;5066971;28;9520;-61
2023/10/09 14:47:20;;;;;;;;;;;;;;;27.77;43.04;94860.63;5057822;28;9114;-61
2023/10/09 14:50:08;;;;;;;;;;;;;;;27.75;43.04;94872.22;5059149;28;9619;-61
2023/10/09 14:52:39;;;;;;;;;;;;;;;27.77;42.88;94866.91;5055074;28;8755;-61
2023/10/09 14:55:09;;;;;;;;;;;;;;;27.75;42.74;94863.16;5068007;28;7127;-61
2023/10/09 14:57:52;;;;;;;;;;;;;;;27.76;42.91;94859.13;5020737;28;9033;-61
2023/10/09 15:00:38;;;;;;;;;;;;;;;27.80;42.68;94854.81;5061852;28;8201;-61
2023/10/09 15:03:28;;;;;;;;;;;;;;;27.82;42.43;94851.56;5068163;28;6997;-61
2023/10/09 15:06:10;;;;;;;;;;;;;;;27.83;42.74;94855.81;5070100;28;7092;-61
2023/10/09 15:08:39;;;;;;;;;;;;;;;27.83;43.00;94848.25;5039231;28;6984;-61
2023/10/09 15:11:09;;;;;;;;;;;;;;;27.83;42.75;94855.81;5043726;28;7630;-61
2023/10/09 15:13:39;;;;;;;;;;;;;;;27.82;42.68;94843.25;5065044;28;9220;-61
2023/10/09 15:16:16;;;;;;;;;;;;;;;27.84;42.89;94849.75;5071046;28;7172;-61
2023/10/09 15:18:52;;;;;;;;;;;;;;;27.87;42.74;94850.75;5041891;28;7009;-61
2023/10/09 15:21:23;;;;;;;;;;;;;;;27.86;42.49;94841.69;5052062;28;7289;-61
2023/10/09 15:24:19;;;;;;;;;;;;;;;27.86;42.68;94852.03;5069378;28;7250;-54
2023/10/09 15:26:58;;;;;;;;;;;;;;;27.86;43.01;94843.72;5017514;28;7199;-55
2023/10/09 15:29:28;;;;;;;;;;;;;;;27.86;42.57;94838.19;4984306;28;8563;-53
2023/10/09 15:32:04;;;;;;;;;;;;;;;27.89;42.58;94842.69;4980687;28;9186;-55
2023/10/09 15:34:41;;;;;;;;;;;;;;;27.86;42.80;94840.97;4994272;28;7942;-55
2023/10/09 15:37:07;;;;;;;;;;;;;;;27.88;42.87;94843.97;5000705;28;7268;-55
2023/10/09 15:39:39;;;;;;;;;;;;;;;27.87;42.80;94832.16;4993684;28;6995;-55
2023/10/09 15:42:32;;;;;;;;;;;;;;;27.90;42.74;94835.91;4985525;28;7544;-54
2023/10/09 15:45:00;;;;;;;;;;;;;;;27.90;42.95;94838.66;4992251;28;7222;-55
2023/10/09 15:47:55;;;;;;;;;;;;;;;27.90;42.84;94835.91;4983625;28;7222;-55
2023/10/09 15:50:51;;;;;;;;;;;;;;;27.90;42.68;94831.13;4910467;29;7536;-55
2023/10/09 15:53:21;;;;;;;;;;;;;;;27.91;42.26;94831.84;4876877;29;7229;-55
2023/10/09 15:56:07;;;;;;;;;;;;;;;27.90;42.61;94831.13;4893835;29;8861;-54
2023/10/09 15:58:44;;;;;;;;;;;;;;;27.88;42.69;94832.91;4894835;29;6999;-54
2023/10/09 16:01:25;;;;;;;;;;;;;;;27.88;42.42;94838.44;4870064;29;6999;-54
2023/10/09 16:04:20;;;;;;;;;;;;;;;27.89;42.46;94835.13;4896727;29;7344;-54
2023/10/09 16:07:09;;;;;;;;;;;;;;;27.89;42.61;94842.69;4861395;29;6944;-54
2023/10/09 16:09:55;;;;;;;;;;;;;;;27.90;42.34;94846.97;4877249;29;7303;-54
2023/10/09 16:12:31;;;;;;;;;;;;;;;27.91;42.37;94842.91;4877454;29;7376;-54
2023/10/09 16:15:14;;;;;;;;;;;;;;;27.85;42.77;94840.19;4887199;29;7297;-54
2023/10/09 16:17:49;;;;;;;;;;;;;;;27.91;42.67;94853.97;4865239;29;7081;-54
2023/10/09 16:20:22;;;;;;;;;;;;;;;27.94;42.52;94858.47;4865452;29;7000;-55